createdAt,value
2016-11-30T00:00:03.498Z,0
2016-11-30T00:01:18.422Z,0
2016-11-30T00:02:03.521Z,0
2016-11-30T00:03:03.536Z,0
2016-11-30T00:04:03.579Z,0
2016-11-30T00:05:03.565Z,0
2016-11-30T00:06:03.573Z,0
2016-11-30T00:07:03.591Z,0
2016-11-30T00:08:18.520Z,0
2016-11-30T00:09:03.613Z,0
2016-11-30T00:10:03.627Z,0
2016-11-30T00:11:03.632Z,0
2016-11-30T00:12:03.656Z,0
2016-11-30T00:13:03.659Z,0
2016-11-30T00:14:18.601Z,0
2016-11-30T00:15:03.695Z,0
2016-11-30T00:17:03.718Z,0
2016-11-30T00:18:03.740Z,0
2016-11-30T00:19:03.746Z,0
2016-11-30T00:20:03.772Z,0
2016-11-30T00:21:03.769Z,0
2016-11-30T00:22:18.707Z,0
2016-11-30T00:23:03.819Z,0
2016-11-30T00:24:03.815Z,0
2016-11-30T00:25:03.850Z,0
2016-11-30T00:26:03.835Z,0
2016-11-30T00:27:03.844Z,0
2016-11-30T00:28:03.896Z,0
2016-11-30T00:29:18.801Z,0
2016-11-30T00:30:18.804Z,0
2016-11-30T00:31:18.819Z,0
2016-11-30T00:32:03.911Z,0
2016-11-30T00:33:03.938Z,0
2016-11-30T00:34:03.939Z,0
2016-11-30T00:35:03.958Z,0
2016-11-30T00:36:03.969Z,0
2016-11-30T00:37:04.035Z,0
2016-11-30T00:38:03.998Z,0
2016-11-30T00:39:04.009Z,0
2016-11-30T00:40:04.019Z,0
2016-11-30T00:41:18.959Z,0
2016-11-30T00:42:04.040Z,0
2016-11-30T00:43:04.056Z,0
2016-11-30T00:44:04.071Z,0
2016-11-30T00:46:19.016Z,0
2016-11-30T00:47:19.034Z,0
2016-11-30T00:48:04.125Z,0
2016-11-30T00:49:04.344Z,0
2016-11-30T00:50:04.155Z,0
2016-11-30T00:51:04.201Z,0
2016-11-30T00:52:04.191Z,0
2016-11-30T00:53:04.185Z,0
2016-11-30T00:54:04.213Z,0
2016-11-30T00:55:19.440Z,0
2016-11-30T00:56:19.148Z,0
2016-11-30T00:58:04.560Z,0
2016-11-30T00:59:19.189Z,0
2016-11-30T01:00:19.213Z,0
2016-11-30T01:01:19.218Z,0
2016-11-30T01:02:19.226Z,0
2016-11-30T01:03:19.251Z,0
2016-11-30T01:04:19.258Z,0
2016-11-30T01:05:04.355Z,0
2016-11-30T01:06:04.360Z,0
2016-11-30T01:07:19.300Z,0
2016-11-30T01:08:04.393Z,0
2016-11-30T01:09:04.395Z,0
2016-11-30T01:10:04.409Z,0
2016-11-30T01:11:19.348Z,0
2016-11-30T01:12:04.435Z,0
2016-11-30T01:13:04.454Z,0
2016-11-30T01:14:04.470Z,0
2016-11-30T01:15:04.481Z,0
2016-11-30T01:16:04.483Z,0
2016-11-30T01:17:04.536Z,0
2016-11-30T01:18:04.527Z,0
2016-11-30T01:19:04.532Z,0
2016-11-30T01:21:04.554Z,0
2016-11-30T01:22:04.576Z,0
2016-11-30T01:23:04.594Z,0
2016-11-30T01:24:04.606Z,0
2016-11-30T01:25:04.612Z,0
2016-11-30T01:26:04.631Z,0
2016-11-30T01:27:04.882Z,0
2016-11-30T01:28:04.645Z,0
2016-11-30T01:29:04.964Z,0
2016-11-30T01:30:19.595Z,0
2016-11-30T01:31:19.911Z,0
2016-11-30T01:32:19.625Z,0
2016-11-30T01:33:19.633Z,0
2016-11-30T01:34:04.762Z,0
2016-11-30T01:36:05.061Z,0
2016-11-30T01:39:05.092Z,0
2016-11-30T01:40:04.806Z,0
2016-11-30T01:41:04.824Z,0
2016-11-30T01:42:04.833Z,0
2016-11-30T01:43:04.844Z,0
2016-11-30T01:44:04.856Z,0
2016-11-30T01:45:04.878Z,0
2016-11-30T01:46:04.889Z,0
2016-11-30T01:47:19.813Z,0
2016-11-30T01:48:19.830Z,0
2016-11-30T01:49:19.843Z,0
2016-11-30T01:50:04.926Z,0
2016-11-30T01:51:04.943Z,0
2016-11-30T01:52:04.965Z,0
2016-11-30T01:53:19.899Z,0
2016-11-30T01:54:04.982Z,0
2016-11-30T01:55:05.035Z,0
2016-11-30T01:56:05.010Z,0
2016-11-30T01:57:05.020Z,0
2016-11-30T01:58:19.963Z,0
2016-11-30T01:59:05.046Z,0
2016-11-30T02:00:05.074Z,0
2016-11-30T02:02:05.091Z,0
2016-11-30T02:03:05.144Z,0
2016-11-30T02:04:05.113Z,0
2016-11-30T02:05:20.055Z,0
2016-11-30T02:06:05.143Z,0
2016-11-30T02:07:05.464Z,0
2016-11-30T02:08:05.166Z,0
2016-11-30T02:09:05.181Z,0
2016-11-30T02:10:05.194Z,0
2016-11-30T02:11:05.212Z,0
2016-11-30T02:12:05.222Z,0
2016-11-30T02:13:05.232Z,0
2016-11-30T02:14:05.252Z,0
2016-11-30T02:15:20.180Z,0
2016-11-30T02:16:05.276Z,0
2016-11-30T02:17:05.311Z,0
2016-11-30T02:18:05.303Z,0
2016-11-30T02:19:05.622Z,0
2016-11-30T02:20:05.327Z,0
2016-11-30T02:21:20.259Z,0
2016-11-30T02:22:05.349Z,0
2016-11-30T02:23:05.370Z,0
2016-11-30T02:24:05.372Z,0
2016-11-30T02:25:05.390Z,0
2016-11-30T02:26:05.402Z,0
2016-11-30T02:27:05.427Z,0
2016-11-30T02:28:05.430Z,0
2016-11-30T02:29:05.449Z,0
2016-11-30T02:30:05.465Z,0
2016-11-30T02:31:05.467Z,0
2016-11-30T02:32:20.412Z,0
2016-11-30T02:33:20.423Z,0
2016-11-30T02:34:20.431Z,0
2016-11-30T02:35:20.448Z,0
2016-11-30T02:36:20.462Z,0
2016-11-30T02:38:05.561Z,0
2016-11-30T02:39:20.497Z,0
2016-11-30T02:40:05.587Z,0
2016-11-30T02:41:05.605Z,0
2016-11-30T02:42:05.614Z,0
2016-11-30T02:43:05.637Z,0
2016-11-30T02:44:05.947Z,0
2016-11-30T02:45:05.666Z,0
2016-11-30T02:46:05.664Z,0
2016-11-30T02:47:20.604Z,0
2016-11-30T02:48:05.704Z,0
2016-11-30T02:49:20.628Z,0
2016-11-30T02:50:05.732Z,0
2016-11-30T02:51:05.740Z,0
2016-11-30T02:52:05.749Z,0
2016-11-30T02:53:05.765Z,0
2016-11-30T02:54:05.777Z,0
2016-11-30T02:55:05.786Z,0
2016-11-30T02:56:05.805Z,0
2016-11-30T02:57:05.823Z,0
2016-11-30T02:58:05.875Z,0
2016-11-30T02:59:05.844Z,0
2016-11-30T03:00:20.777Z,0
2016-11-30T03:01:20.790Z,0
2016-11-30T03:02:05.885Z,0
2016-11-30T03:03:20.816Z,0
2016-11-30T03:04:20.827Z,0
2016-11-30T03:05:05.924Z,0
2016-11-30T03:06:05.945Z,0
2016-11-30T03:07:05.948Z,0
2016-11-30T03:08:21.184Z,0
2016-11-30T03:09:05.980Z,0
2016-11-30T03:10:06.026Z,0
2016-11-30T03:11:06.000Z,0
2016-11-30T03:12:06.026Z,0
2016-11-30T03:13:06.036Z,0
2016-11-30T03:14:06.039Z,0
2016-11-30T03:15:06.057Z,0
2016-11-30T03:17:06.088Z,0
2016-11-30T03:18:06.095Z,0
2016-11-30T03:19:06.114Z,0
2016-11-30T03:20:06.122Z,0
2016-11-30T03:21:06.132Z,0
2016-11-30T03:22:21.071Z,0
2016-11-30T03:23:06.164Z,0
2016-11-30T03:24:36.021Z,0
2016-11-30T03:25:06.191Z,0
2016-11-30T03:26:06.203Z,0
2016-11-30T03:27:06.220Z,0
2016-11-30T03:28:06.265Z,0
2016-11-30T03:29:06.244Z,0
2016-11-30T03:30:21.180Z,0
2016-11-30T03:31:06.574Z,0
2016-11-30T03:32:06.281Z,0
2016-11-30T03:33:06.321Z,0
2016-11-30T03:34:06.315Z,0
2016-11-30T03:35:21.249Z,0
2016-11-30T03:36:21.264Z,0
2016-11-30T03:37:06.349Z,0
2016-11-30T03:38:21.286Z,0
2016-11-30T03:39:21.313Z,0
2016-11-30T03:40:36.236Z,0
2016-11-30T03:41:53.428Z,0
2016-11-30T03:43:21.349Z,0
2016-11-30T03:45:06.450Z,0
2016-11-30T03:47:06.481Z,0
2016-11-30T03:48:21.421Z,0
2016-11-30T03:49:06.505Z,0
2016-11-30T03:50:06.521Z,0
2016-11-30T03:51:06.533Z,0
2016-11-30T03:52:06.556Z,0
2016-11-30T03:53:06.565Z,0
2016-11-30T03:54:06.576Z,0
2016-11-30T03:55:06.587Z,0
2016-11-30T03:56:21.521Z,0
2016-11-30T03:57:21.534Z,0
2016-11-30T03:58:06.629Z,0
2016-11-30T03:59:21.562Z,0
2016-11-30T04:00:21.728Z,0
2016-11-30T04:01:21.599Z,0
2016-11-30T04:03:06.697Z,0
2016-11-30T04:04:21.639Z,0
2016-11-30T04:05:06.735Z,0
2016-11-30T04:06:06.739Z,0
2016-11-30T04:08:06.763Z,0
2016-11-30T04:09:21.704Z,0
2016-11-30T04:10:07.112Z,0
2016-11-30T04:11:36.660Z,0
2016-11-30T04:12:06.827Z,0
2016-11-30T04:13:06.853Z,0
2016-11-30T04:14:06.852Z,0
2016-11-30T04:16:06.882Z,0
2016-11-30T04:17:06.896Z,0
2016-11-30T04:18:06.909Z,0
2016-11-30T04:19:06.921Z,0
2016-11-30T04:20:06.936Z,0
2016-11-30T04:21:06.953Z,0
2016-11-30T04:22:06.971Z,0
2016-11-30T04:23:21.901Z,0
2016-11-30T04:24:06.992Z,0
2016-11-30T04:25:21.933Z,0
2016-11-30T04:26:21.939Z,0
2016-11-30T04:27:07.034Z,0
2016-11-30T04:28:07.062Z,0
2016-11-30T04:29:07.065Z,0
2016-11-30T04:30:07.081Z,0
2016-11-30T04:31:07.086Z,0
2016-11-30T04:32:07.108Z,0
2016-11-30T04:33:07.115Z,0
2016-11-30T04:34:22.084Z,0
2016-11-30T04:35:07.451Z,0
2016-11-30T04:36:22.076Z,0
2016-11-30T04:37:07.182Z,0
2016-11-30T04:38:07.186Z,0
2016-11-30T04:39:07.195Z,0
2016-11-30T04:40:07.209Z,0
2016-11-30T04:41:07.219Z,0
2016-11-30T04:42:07.240Z,0
2016-11-30T04:43:22.170Z,0
2016-11-30T04:45:22.205Z,0
2016-11-30T04:46:07.296Z,0
2016-11-30T04:47:07.309Z,0
2016-11-30T04:48:07.324Z,0
2016-11-30T04:49:07.345Z,0
2016-11-30T04:50:07.353Z,0
2016-11-30T04:51:07.367Z,0
2016-11-30T04:52:07.379Z,0
2016-11-30T04:53:07.388Z,0
2016-11-30T04:55:07.417Z,0
2016-11-30T04:56:07.438Z,0
2016-11-30T04:57:07.445Z,0
2016-11-30T04:58:07.460Z,0
2016-11-30T05:00:07.498Z,0
2016-11-30T05:01:07.510Z,0
2016-11-30T05:02:07.519Z,0
2016-11-30T05:03:07.534Z,0
2016-11-30T05:04:07.852Z,0
2016-11-30T05:05:07.566Z,0
2016-11-30T05:06:07.603Z,0
2016-11-30T05:07:07.590Z,0
2016-11-30T05:08:07.604Z,0
2016-11-30T05:09:07.616Z,0
2016-11-30T05:10:07.632Z,0
2016-11-30T05:11:07.650Z,0
2016-11-30T05:12:07.667Z,0
2016-11-30T05:13:22.591Z,0
2016-11-30T05:14:22.910Z,0
2016-11-30T05:15:22.619Z,0
2016-11-30T05:16:07.722Z,0
2016-11-30T05:17:07.733Z,0
2016-11-30T05:18:07.742Z,0
2016-11-30T05:19:07.751Z,0
2016-11-30T05:20:07.774Z,0
2016-11-30T05:21:07.782Z,0
2016-11-30T05:22:07.803Z,0
2016-11-30T05:23:08.163Z,0
2016-11-30T05:24:07.828Z,0
2016-11-30T05:25:07.851Z,0
2016-11-30T05:26:07.855Z,0
2016-11-30T05:27:22.788Z,0
2016-11-30T05:28:07.892Z,0
2016-11-30T05:29:08.203Z,0
2016-11-30T05:30:07.919Z,0
2016-11-30T05:31:22.851Z,0
2016-11-30T05:32:22.892Z,0
2016-11-30T05:34:07.969Z,0
2016-11-30T05:35:08.284Z,0
2016-11-30T05:36:07.998Z,0
2016-11-30T05:37:08.029Z,0
2016-11-30T05:38:08.028Z,0
2016-11-30T05:39:08.044Z,0
2016-11-30T05:40:08.060Z,0
2016-11-30T05:41:22.992Z,0
2016-11-30T05:42:08.077Z,0
2016-11-30T05:44:08.112Z,0
2016-11-30T05:45:08.128Z,0
2016-11-30T05:46:23.063Z,0
2016-11-30T05:47:08.154Z,0
2016-11-30T05:48:08.169Z,0
2016-11-30T05:49:08.174Z,0
2016-11-30T05:50:08.200Z,0
2016-11-30T05:51:08.261Z,0
2016-11-30T05:52:08.234Z,0
2016-11-30T05:53:08.244Z,0
2016-11-30T05:54:08.257Z,0
2016-11-30T05:55:23.197Z,0
2016-11-30T05:56:23.260Z,0
2016-11-30T05:57:08.298Z,0
2016-11-30T05:58:08.314Z,0
2016-11-30T05:59:08.337Z,0
2016-11-30T06:00:23.277Z,0
2016-11-30T06:01:08.659Z,0
2016-11-30T06:02:08.371Z,0
2016-11-30T06:04:08.402Z,0
2016-11-30T06:05:08.407Z,0
2016-11-30T06:06:08.431Z,0
2016-11-30T06:07:08.445Z,0
2016-11-30T06:08:08.458Z,0
2016-11-30T06:09:08.478Z,0
2016-11-30T06:10:08.491Z,0
2016-11-30T06:11:08.493Z,0
2016-11-30T06:12:23.437Z,0
2016-11-30T06:13:08.523Z,0
2016-11-30T06:14:08.545Z,0
2016-11-30T06:15:08.563Z,0
2016-11-30T06:16:08.599Z,0
2016-11-30T06:17:23.561Z,0
2016-11-30T06:18:23.520Z,0
2016-11-30T06:19:08.909Z,0
2016-11-30T06:20:08.638Z,0
2016-11-30T06:21:08.940Z,0
2016-11-30T06:22:23.582Z,0
2016-11-30T06:23:08.664Z,0
2016-11-30T06:24:08.989Z,0
2016-11-30T06:25:08.701Z,0
2016-11-30T06:26:23.939Z,0
2016-11-30T06:27:08.731Z,0
2016-11-30T06:28:08.748Z,0
2016-11-30T06:29:08.757Z,0
2016-11-30T06:30:08.768Z,0
2016-11-30T06:31:08.783Z,0
2016-11-30T06:32:08.807Z,0
2016-11-30T06:33:23.743Z,0
2016-11-30T06:34:23.747Z,0
2016-11-30T06:35:23.761Z,0
2016-11-30T06:36:08.862Z,0
2016-11-30T06:38:08.882Z,0
2016-11-30T06:39:23.829Z,0
2016-11-30T06:40:08.921Z,0
2016-11-30T06:41:08.933Z,0
2016-11-30T06:42:08.949Z,0
2016-11-30T06:43:23.882Z,0
2016-11-30T06:44:08.978Z,0
2016-11-30T06:45:08.992Z,0
2016-11-30T06:47:09.013Z,0
2016-11-30T06:48:23.953Z,0
2016-11-30T06:49:09.051Z,0
2016-11-30T06:50:24.032Z,0
2016-11-30T06:51:09.079Z,0
2016-11-30T06:52:09.096Z,0
2016-11-30T06:53:09.115Z,0
2016-11-30T06:54:09.137Z,0
2016-11-30T06:55:09.128Z,0
2016-11-30T06:56:09.156Z,0
2016-11-30T06:57:09.171Z,0
2016-11-30T06:58:09.186Z,0
2016-11-30T06:59:24.133Z,0
2016-11-30T07:00:09.820Z,0
2016-11-30T07:01:09.229Z,0
2016-11-30T07:02:24.192Z,0
2016-11-30T07:03:24.178Z,0
2016-11-30T07:04:24.213Z,0
2016-11-30T07:05:09.584Z,0
2016-11-30T07:06:24.216Z,0
2016-11-30T07:07:09.323Z,0
2016-11-30T07:08:09.324Z,0
2016-11-30T07:09:24.275Z,0
2016-11-30T07:10:09.367Z,0
2016-11-30T07:12:09.385Z,0
2016-11-30T07:13:09.398Z,0
2016-11-30T07:14:09.421Z,0
2016-11-30T07:15:09.430Z,0
2016-11-30T07:16:09.445Z,0
2016-11-30T07:17:24.414Z,0
2016-11-30T07:18:09.472Z,0
2016-11-30T07:20:09.515Z,0
2016-11-30T07:21:24.449Z,0
2016-11-30T07:23:24.473Z,0
2016-11-30T07:25:09.921Z,0
2016-11-30T07:26:09.609Z,0
2016-11-30T07:27:09.667Z,0
2016-11-30T07:28:09.622Z,5
2016-11-30T07:29:09.641Z,5
2016-11-30T07:30:09.655Z,5
2016-11-30T07:31:09.674Z,5
2016-11-30T07:32:09.692Z,5
2016-11-30T07:33:09.708Z,5
2016-11-30T07:35:09.739Z,5
2016-11-30T07:36:09.749Z,5
2016-11-30T07:38:24.693Z,5
2016-11-30T07:39:09.789Z,5
2016-11-30T07:40:24.734Z,5
2016-11-30T07:41:09.821Z,5
2016-11-30T07:42:09.866Z,5
2016-11-30T07:43:09.853Z,5
2016-11-30T07:44:09.901Z,5
2016-11-30T07:45:09.880Z,5
2016-11-30T07:46:09.905Z,10
2016-11-30T07:47:09.918Z,10
2016-11-30T07:48:25.202Z,5
2016-11-30T07:49:09.997Z,5
2016-11-30T07:50:09.954Z,5
2016-11-30T07:51:09.970Z,5
2016-11-30T07:52:24.907Z,5
2016-11-30T07:53:24.930Z,5
2016-11-30T07:54:24.940Z,5
2016-11-30T07:55:10.059Z,5
2016-11-30T07:56:10.049Z,5
2016-11-30T07:57:10.083Z,5
2016-11-30T07:58:10.080Z,5
2016-11-30T08:00:10.104Z,5
2016-11-30T08:01:10.431Z,5
2016-11-30T08:02:10.133Z,10
2016-11-30T08:03:10.154Z,10
2016-11-30T08:04:10.172Z,5
2016-11-30T08:05:10.186Z,5
2016-11-30T08:06:10.203Z,5
2016-11-30T08:08:25.152Z,5
2016-11-30T08:09:25.169Z,5
2016-11-30T08:10:25.189Z,5
2016-11-30T08:11:10.580Z,10
2016-11-30T08:12:10.302Z,5
2016-11-30T08:13:10.304Z,5
2016-11-30T08:14:10.627Z,10
2016-11-30T08:15:10.346Z,10
2016-11-30T08:16:10.386Z,10
2016-11-30T08:17:10.373Z,10
2016-11-30T08:18:10.380Z,10
2016-11-30T08:19:10.408Z,10
2016-11-30T08:20:10.423Z,10
2016-11-30T08:21:10.428Z,10
2016-11-30T08:22:10.442Z,10
2016-11-30T08:23:10.458Z,10
2016-11-30T08:24:10.478Z,15
2016-11-30T08:25:25.437Z,15
2016-11-30T08:26:25.430Z,15
2016-11-30T08:27:10.527Z,15
2016-11-30T08:28:25.455Z,15
2016-11-30T08:29:10.557Z,15
2016-11-30T08:30:10.620Z,15
2016-11-30T08:31:10.575Z,15
2016-11-30T08:32:10.594Z,15
2016-11-30T08:33:10.612Z,15
2016-11-30T08:34:10.633Z,15
2016-11-30T08:35:25.870Z,10
2016-11-30T08:36:10.657Z,10
2016-11-30T08:37:10.677Z,15
2016-11-30T08:38:25.616Z,15
2016-11-30T08:39:25.632Z,15
2016-11-30T08:40:10.729Z,20
2016-11-30T08:41:25.657Z,20
2016-11-30T08:43:10.774Z,20
2016-11-30T08:44:10.791Z,20
2016-11-30T08:45:10.800Z,20
2016-11-30T08:46:10.815Z,20
2016-11-30T08:47:11.132Z,25
2016-11-30T08:48:10.848Z,25
2016-11-30T08:49:10.867Z,25
2016-11-30T08:50:10.877Z,25
2016-11-30T08:53:10.933Z,20
2016-11-30T08:54:10.949Z,20
2016-11-30T08:55:10.957Z,20
2016-11-30T08:56:40.819Z,15
2016-11-30T08:57:10.987Z,15
2016-11-30T08:58:11.008Z,15
2016-11-30T08:59:11.318Z,15
2016-11-30T09:00:11.031Z,20
2016-11-30T09:01:25.983Z,20
2016-11-30T09:02:11.063Z,25
2016-11-30T09:03:11.082Z,25
2016-11-30T09:04:11.400Z,30
2016-11-30T09:05:11.151Z,30
2016-11-30T09:06:11.128Z,30
2016-11-30T09:07:11.159Z,35
2016-11-30T09:08:26.082Z,35
2016-11-30T09:09:26.106Z,30
2016-11-30T09:10:11.244Z,30
2016-11-30T09:11:26.132Z,25
2016-11-30T09:12:11.222Z,25
2016-11-30T09:13:11.239Z,25
2016-11-30T09:14:11.259Z,25
2016-11-30T09:15:11.270Z,25
2016-11-30T09:16:11.289Z,25
2016-11-30T09:17:11.301Z,30
2016-11-30T09:18:11.323Z,30
2016-11-30T09:19:11.332Z,30
2016-11-30T09:20:26.272Z,25
2016-11-30T09:21:11.358Z,20
2016-11-30T09:22:11.383Z,20
2016-11-30T09:23:11.394Z,15
2016-11-30T09:25:26.355Z,10
2016-11-30T09:26:26.366Z,10
2016-11-30T09:27:11.465Z,15
2016-11-30T09:28:26.406Z,20
2016-11-30T09:29:11.808Z,20
2016-11-30T09:30:11.505Z,20
2016-11-30T09:31:11.514Z,25
2016-11-30T09:32:11.541Z,30
2016-11-30T09:33:11.565Z,30
2016-11-30T09:34:11.577Z,30
2016-11-30T09:35:11.584Z,30
2016-11-30T09:36:26.525Z,30
2016-11-30T09:37:26.540Z,25
2016-11-30T09:38:26.561Z,20
2016-11-30T09:39:11.647Z,20
2016-11-30T09:40:26.587Z,20
2016-11-30T09:41:11.679Z,20
2016-11-30T09:42:11.693Z,20
2016-11-30T09:43:41.558Z,15
2016-11-30T09:44:26.648Z,15
2016-11-30T09:45:11.746Z,15
2016-11-30T09:46:11.763Z,15
2016-11-30T09:47:11.780Z,15
2016-11-30T09:48:11.801Z,15
2016-11-30T09:49:11.807Z,15
2016-11-30T09:51:11.847Z,15
2016-11-30T09:52:26.776Z,15
2016-11-30T09:53:11.872Z,15
2016-11-30T09:54:11.914Z,20
2016-11-30T09:55:11.902Z,20
2016-11-30T09:56:26.892Z,20
2016-11-30T09:57:11.927Z,20
2016-11-30T09:58:26.875Z,20
2016-11-30T09:59:12.067Z,20
2016-11-30T10:00:26.909Z,25
2016-11-30T10:01:12.000Z,30
2016-11-30T10:02:12.016Z,40
2016-11-30T10:03:12.033Z,45
2016-11-30T10:04:12.045Z,50
2016-11-30T10:05:12.677Z,50
2016-11-30T10:06:12.129Z,50
2016-11-30T10:07:12.108Z,50
2016-11-30T10:08:12.117Z,50
2016-11-30T10:09:12.133Z,50
2016-11-30T10:10:12.148Z,50
2016-11-30T10:11:12.150Z,50
2016-11-30T10:12:12.169Z,50
2016-11-30T10:13:27.122Z,50
2016-11-30T10:14:27.130Z,55
2016-11-30T10:15:12.211Z,60
2016-11-30T10:16:27.160Z,65
2016-11-30T10:17:12.261Z,65
2016-11-30T10:18:27.185Z,70
2016-11-30T10:19:27.203Z,70
2016-11-30T10:20:12.303Z,70
2016-11-30T10:21:12.319Z,60
2016-11-30T10:22:12.337Z,60
2016-11-30T10:23:12.344Z,65
2016-11-30T10:24:27.288Z,70
2016-11-30T10:25:12.690Z,70
2016-11-30T10:26:12.404Z,75
2016-11-30T10:27:12.415Z,80
2016-11-30T10:28:27.359Z,85
2016-11-30T10:29:27.373Z,75
2016-11-30T10:30:27.388Z,75
2016-11-30T10:31:27.396Z,75
2016-11-30T10:32:12.501Z,75
2016-11-30T10:33:42.359Z,70
2016-11-30T10:34:27.450Z,70
2016-11-30T10:35:27.523Z,70
2016-11-30T10:36:12.562Z,60
2016-11-30T10:37:12.625Z,55
2016-11-30T10:38:12.592Z,50
2016-11-30T10:39:12.610Z,50
2016-11-30T10:40:12.635Z,45
2016-11-30T10:41:12.644Z,40
2016-11-30T10:42:12.661Z,40
2016-11-30T10:43:12.706Z,35
2016-11-30T10:44:12.696Z,35
2016-11-30T10:46:12.727Z,30
2016-11-30T10:48:27.687Z,40
2016-11-30T10:50:12.800Z,45
2016-11-30T10:51:12.805Z,45
2016-11-30T10:52:12.833Z,45
2016-11-30T10:53:12.849Z,45
2016-11-30T10:54:12.866Z,50
2016-11-30T10:55:12.877Z,50
2016-11-30T10:56:12.899Z,50
2016-11-30T10:57:12.913Z,55
2016-11-30T10:58:12.983Z,55
2016-11-30T10:59:27.862Z,60
2016-11-30T11:00:13.014Z,55
2016-11-30T11:01:12.982Z,55
2016-11-30T11:02:13.040Z,55
2016-11-30T11:03:27.935Z,55
2016-11-30T11:04:13.036Z,50
2016-11-30T11:05:13.047Z,50
2016-11-30T11:08:13.092Z,50
2016-11-30T11:10:13.123Z,50
2016-11-30T11:11:13.445Z,55
2016-11-30T11:12:13.157Z,55
2016-11-30T11:13:13.168Z,50
2016-11-30T11:14:13.196Z,50
2016-11-30T11:15:13.569Z,55
2016-11-30T11:16:28.152Z,55
2016-11-30T11:17:13.247Z,55
2016-11-30T11:19:28.195Z,55
2016-11-30T11:20:13.296Z,55
2016-11-30T11:21:13.357Z,55
2016-11-30T11:22:28.242Z,55
2016-11-30T11:23:13.348Z,55
2016-11-30T11:24:13.358Z,55
2016-11-30T11:25:13.384Z,50
2016-11-30T11:26:13.388Z,50
2016-11-30T11:27:13.413Z,50
2016-11-30T11:28:13.425Z,50
2016-11-30T11:29:13.441Z,45
2016-11-30T11:30:13.504Z,45
2016-11-30T11:31:13.475Z,50
2016-11-30T11:32:28.421Z,50
2016-11-30T11:33:13.512Z,50
2016-11-30T11:34:28.443Z,50
2016-11-30T11:35:28.471Z,50
2016-11-30T11:36:28.489Z,50
2016-11-30T11:37:13.579Z,50
2016-11-30T11:38:28.524Z,50
2016-11-30T11:39:13.611Z,50
2016-11-30T11:40:13.933Z,50
2016-11-30T11:41:28.567Z,45
2016-11-30T11:42:13.656Z,45
2016-11-30T11:43:13.681Z,45
2016-11-30T11:44:14.011Z,45
2016-11-30T11:46:13.729Z,45
2016-11-30T11:47:28.971Z,45
2016-11-30T11:48:13.773Z,45
2016-11-30T11:49:13.982Z,45
2016-11-30T11:50:14.049Z,45
2016-11-30T11:51:28.736Z,45
2016-11-30T11:52:28.750Z,45
2016-11-30T11:53:13.850Z,50
2016-11-30T11:54:13.866Z,50
2016-11-30T11:55:13.888Z,50
2016-11-30T11:57:13.915Z,50
2016-11-30T11:58:28.859Z,50
2016-11-30T11:59:13.963Z,50
2016-11-30T12:00:13.972Z,50
2016-11-30T12:01:13.996Z,50
2016-11-30T12:02:13.994Z,45
2016-11-30T12:03:28.941Z,40
2016-11-30T12:04:14.058Z,40
2016-11-30T12:05:14.058Z,35
2016-11-30T12:06:28.993Z,35
2016-11-30T12:07:29.023Z,40
2016-11-30T12:08:14.105Z,45
2016-11-30T12:09:14.121Z,45
2016-11-30T12:10:14.185Z,50
2016-11-30T12:11:14.155Z,50
2016-11-30T12:12:14.179Z,50
2016-11-30T12:13:14.191Z,50
2016-11-30T12:14:14.211Z,50
2016-11-30T12:16:14.248Z,45
2016-11-30T12:17:14.261Z,45
2016-11-30T12:18:14.272Z,40
2016-11-30T12:19:29.211Z,40
2016-11-30T12:20:14.306Z,40
2016-11-30T12:21:29.250Z,35
2016-11-30T12:22:14.347Z,35
2016-11-30T12:24:29.291Z,35
2016-11-30T12:25:14.395Z,35
2016-11-30T12:26:14.410Z,40
2016-11-30T12:27:14.422Z,40
2016-11-30T12:28:14.445Z,35
2016-11-30T12:29:14.464Z,35
2016-11-30T12:30:29.401Z,35
2016-11-30T12:31:14.497Z,35
2016-11-30T12:32:14.516Z,35
2016-11-30T12:33:29.451Z,35
2016-11-30T12:35:14.575Z,30
2016-11-30T12:36:14.579Z,30
2016-11-30T12:37:29.516Z,30
2016-11-30T12:38:29.536Z,30
2016-11-30T12:39:14.637Z,30
2016-11-30T12:40:14.654Z,30
2016-11-30T12:41:15.148Z,25
2016-11-30T12:42:29.611Z,25
2016-11-30T12:43:14.718Z,25
2016-11-30T12:44:14.725Z,20
2016-11-30T12:45:14.736Z,20
2016-11-30T12:46:14.751Z,15
2016-11-30T12:47:15.080Z,15
2016-11-30T12:48:14.794Z,15
2016-11-30T12:49:14.805Z,15
2016-11-30T12:50:29.755Z,10
2016-11-30T12:51:29.765Z,10
2016-11-30T12:52:29.784Z,15
2016-11-30T12:53:14.882Z,15
2016-11-30T12:54:29.815Z,15
2016-11-30T12:55:14.922Z,15
2016-11-30T12:56:14.918Z,15
2016-11-30T12:57:14.947Z,15
2016-11-30T12:58:29.875Z,15
2016-11-30T12:59:29.906Z,15
2016-11-30T13:00:15.099Z,10
2016-11-30T13:01:29.985Z,10
2016-11-30T13:02:15.030Z,10
2016-11-30T13:03:15.100Z,10
2016-11-30T13:04:15.057Z,10
2016-11-30T13:05:15.078Z,10
2016-11-30T13:06:30.017Z,10
2016-11-30T13:07:15.120Z,10
2016-11-30T13:08:15.126Z,10
2016-11-30T13:09:15.153Z,5
2016-11-30T13:10:30.144Z,10
2016-11-30T13:11:15.180Z,10
2016-11-30T13:12:15.214Z,10
2016-11-30T13:15:30.176Z,5
2016-11-30T13:16:30.190Z,5
2016-11-30T13:17:15.290Z,5
2016-11-30T13:18:15.305Z,5
2016-11-30T13:19:15.320Z,5
2016-11-30T13:21:45.202Z,5
2016-11-30T13:22:30.284Z,5
2016-11-30T13:23:15.379Z,5
2016-11-30T13:25:30.338Z,5
2016-11-30T13:26:30.355Z,5
2016-11-30T13:28:15.463Z,5
2016-11-30T13:29:15.497Z,5
2016-11-30T13:30:30.430Z,5
2016-11-30T13:31:15.516Z,5
2016-11-30T13:33:15.552Z,5
2016-11-30T13:34:15.568Z,5
2016-11-30T13:35:15.588Z,5
2016-11-30T13:36:15.605Z,5
2016-11-30T13:37:15.626Z,5
2016-11-30T13:39:15.654Z,5
2016-11-30T13:40:15.674Z,5
2016-11-30T13:41:30.624Z,0
2016-11-30T13:42:15.710Z,0
2016-11-30T13:43:30.638Z,0
2016-11-30T13:44:15.779Z,0
2016-11-30T13:45:30.677Z,0
2016-11-30T13:46:15.771Z,0
2016-11-30T13:47:15.791Z,5
2016-11-30T13:48:15.814Z,0
2016-11-30T13:49:15.829Z,0
2016-11-30T13:50:15.834Z,0
2016-11-30T13:51:15.865Z,0
2016-11-30T13:52:15.882Z,0
2016-11-30T13:53:15.884Z,0
2016-11-30T13:54:15.906Z,0
2016-11-30T13:55:30.846Z,0
2016-11-30T13:56:30.860Z,0
2016-11-30T13:57:15.953Z,0
2016-11-30T13:58:15.979Z,0
2016-11-30T14:00:16.116Z,0
2016-11-30T14:01:16.321Z,0
2016-11-30T14:02:16.336Z,0
2016-11-30T14:03:16.117Z,0
2016-11-30T14:04:16.072Z,0
2016-11-30T14:05:16.088Z,0
2016-11-30T14:06:16.109Z,0
2016-11-30T14:07:16.122Z,0
2016-11-30T14:08:16.140Z,0
2016-11-30T14:09:16.161Z,0
2016-11-30T14:10:16.175Z,0
2016-11-30T14:11:31.113Z,0
2016-11-30T14:12:16.218Z,0
2016-11-30T14:13:31.152Z,0
2016-11-30T14:14:31.164Z,0
2016-11-30T14:15:16.255Z,0
2016-11-30T14:16:16.590Z,0
2016-11-30T14:17:16.302Z,0
2016-11-30T14:18:16.620Z,0
2016-11-30T14:19:31.252Z,0
2016-11-30T14:20:16.656Z,0
2016-11-30T14:21:16.356Z,0
2016-11-30T14:22:16.685Z,0
2016-11-30T14:23:16.398Z,0
2016-11-30T14:24:16.724Z,0
2016-11-30T14:25:16.430Z,0
2016-11-30T14:26:16.448Z,0
2016-11-30T14:27:16.456Z,0
2016-11-30T14:28:16.472Z,0
2016-11-30T14:29:31.414Z,0
2016-11-30T14:30:31.432Z,0
2016-11-30T14:31:16.533Z,0
2016-11-30T14:32:31.469Z,0
2016-11-30T14:33:16.908Z,0
2016-11-30T14:34:16.576Z,0
2016-11-30T14:35:16.597Z,0
2016-11-30T14:36:16.610Z,0
2016-11-30T14:37:16.633Z,0
2016-11-30T14:38:16.652Z,0
2016-11-30T14:39:16.704Z,0
2016-11-30T14:40:16.674Z,0
2016-11-30T14:41:16.693Z,0
2016-11-30T14:42:31.626Z,0
2016-11-30T14:43:16.719Z,0
2016-11-30T14:44:16.736Z,0
2016-11-30T14:45:31.681Z,0
2016-11-30T14:47:17.249Z,0
2016-11-30T14:48:31.725Z,0
2016-11-30T14:50:16.841Z,0
2016-11-30T14:51:16.856Z,0
2016-11-30T14:52:16.880Z,0
2016-11-30T14:53:16.898Z,0
2016-11-30T14:54:16.907Z,0
2016-11-30T14:55:31.845Z,0
2016-11-30T14:56:16.967Z,0
2016-11-30T14:57:16.962Z,0
2016-11-30T14:58:16.974Z,0
2016-11-30T14:59:32.217Z,0
2016-11-30T15:00:17.005Z,0
2016-11-30T15:01:31.948Z,0
2016-11-30T15:02:17.038Z,0
2016-11-30T15:03:32.036Z,0
2016-11-30T15:04:32.033Z,0
2016-11-30T15:05:32.264Z,0
2016-11-30T15:06:17.113Z,0
2016-11-30T15:08:17.150Z,0
2016-11-30T15:09:32.085Z,0
2016-11-30T15:10:17.176Z,0
2016-11-30T15:11:17.499Z,0
2016-11-30T15:12:17.218Z,0
2016-11-30T15:13:17.228Z,0
2016-11-30T15:14:17.242Z,0
2016-11-30T15:15:17.259Z,0
2016-11-30T15:16:32.201Z,0
2016-11-30T15:17:17.329Z,0
2016-11-30T15:18:17.319Z,0
2016-11-30T15:19:17.333Z,0
2016-11-30T15:20:17.343Z,0
2016-11-30T15:21:17.360Z,0
2016-11-30T15:22:17.384Z,0
2016-11-30T15:23:17.400Z,0
2016-11-30T15:24:17.414Z,0
2016-11-30T15:25:17.432Z,0
2016-11-30T15:26:17.438Z,0
2016-11-30T15:27:17.462Z,0
2016-11-30T15:28:17.479Z,0
2016-11-30T15:29:17.491Z,0
2016-11-30T15:30:32.733Z,0
2016-11-30T15:31:17.532Z,0
2016-11-30T15:32:32.474Z,0
2016-11-30T15:33:17.576Z,0
2016-11-30T15:34:17.581Z,0
2016-11-30T15:36:17.610Z,0
2016-11-30T15:37:17.629Z,0